createdAt,value
2019-02-12T00:02:15.790Z,17.20
2019-02-12T00:04:57.044Z,15.63
2019-02-12T00:07:41.660Z,11.53
2019-02-12T00:10:07.944Z,13.10
2019-02-12T00:12:34.100Z,16.60
2019-02-12T00:15:00.392Z,20.83
2019-02-12T00:17:26.643Z,12.03
2019-02-12T00:19:52.978Z,12.80
2019-02-12T00:22:19.189Z,9.70
2019-02-12T00:24:45.429Z,11.33
2019-02-12T00:27:11.596Z,15.03
2019-02-12T00:29:37.820Z,14.50
2019-02-12T00:32:03.986Z,10.10
2019-02-12T00:34:30.143Z,14.37
2019-02-12T00:36:56.308Z,19.17
2019-02-12T00:39:22.454Z,15.27
2019-02-12T00:42:07.108Z,9.33
2019-02-12T00:44:33.297Z,19.17
2019-02-12T00:46:59.485Z,16.03
2019-02-12T00:49:25.642Z,27.93
2019-02-12T00:51:51.880Z,11.57
2019-02-12T00:54:18.117Z,12.30
2019-02-12T00:56:44.266Z,12.50
2019-02-12T00:59:10.408Z,17.50
2019-02-12T01:01:36.563Z,11.90
2019-02-12T01:04:02.754Z,17.07
2019-02-12T01:06:29.018Z,14.23
2019-02-12T01:08:55.191Z,20.80
2019-02-12T01:11:24.177Z,9.60
2019-02-12T01:13:50.342Z,13.50
2019-02-12T01:16:16.476Z,8.83
2019-02-12T01:18:42.651Z,9.77
2019-02-12T01:21:08.916Z,13.87
2019-02-12T01:23:35.186Z,23.60
2019-02-12T01:26:01.448Z,8.17
2019-02-12T01:28:27.689Z,10.60
2019-02-12T01:30:53.815Z,16.77
2019-02-12T01:33:19.993Z,13.13
2019-02-12T01:35:46.139Z,6.83
2019-02-12T01:38:15.186Z,16.70
2019-02-12T01:40:41.329Z,7.50
2019-02-12T01:43:07.484Z,17.60
2019-02-12T01:45:33.635Z,18.77
2019-02-12T01:47:59.795Z,12.47
2019-02-12T01:50:25.967Z,7.53
2019-02-12T01:52:52.184Z,8.50
2019-02-12T01:55:18.426Z,17.10
2019-02-12T01:57:44.634Z,10.90
2019-02-12T02:00:12.402Z,6.83
2019-02-12T02:02:38.616Z,13.50
2019-02-12T02:05:06.988Z,16.13
2019-02-12T02:07:33.187Z,10.10
2019-02-12T02:09:59.340Z,16.07
2019-02-12T02:12:28.128Z,16.13
2019-02-12T02:14:54.288Z,22.23
2019-02-12T02:17:20.470Z,15.50
2019-02-12T02:19:46.724Z,15.47
2019-02-12T02:22:13.005Z,13.27
2019-02-12T02:24:39.152Z,25.03
2019-02-12T02:27:05.309Z,13.37
2019-02-12T02:29:34.354Z,16.00
2019-02-12T02:32:00.577Z,9.07
2019-02-12T02:34:26.815Z,13.20
2019-02-12T02:36:53.013Z,14.60
2019-02-12T02:39:19.176Z,16.13
2019-02-12T02:41:45.341Z,10.70
2019-02-12T02:44:11.500Z,19.33
2019-02-12T02:46:37.653Z,10.63
2019-02-12T02:49:03.827Z,13.43
2019-02-12T02:51:29.979Z,20.60
2019-02-12T02:53:56.171Z,15.17
2019-02-12T02:56:22.469Z,8.90
2019-02-12T02:58:48.660Z,13.30
2019-02-12T03:01:14.880Z,13.50
2019-02-12T03:03:41.052Z,9.97
2019-02-12T03:06:10.343Z,17.73
2019-02-12T03:08:36.590Z,17.07
2019-02-12T03:11:02.789Z,19.63
2019-02-12T03:13:29.021Z,11.70
2019-02-12T03:15:55.231Z,15.27
2019-02-12T03:18:21.468Z,13.67
2019-02-12T03:20:47.625Z,14.60
2019-02-12T03:23:22.914Z,13.17
2019-02-12T03:25:51.631Z,6.83
2019-02-12T03:28:17.788Z,9.13
2019-02-12T03:30:43.961Z,12.37
2019-02-12T03:33:10.153Z,15.30
2019-02-12T03:35:36.448Z,13.50
2019-02-12T03:38:02.624Z,11.13
2019-02-12T03:40:28.904Z,12.63
2019-02-12T03:43:07.217Z,9.03
2019-02-12T03:45:35.940Z,20.17
2019-02-12T03:48:02.124Z,9.63
2019-02-12T03:50:28.304Z,8.97
2019-02-12T03:52:54.555Z,11.83
2019-02-12T03:55:20.837Z,14.27
2019-02-12T03:57:47.004Z,14.03
2019-02-12T04:00:14.477Z,16.43
2019-02-12T04:03:01.392Z,11.13
2019-02-12T04:05:27.769Z,14.67
2019-02-12T04:07:53.923Z,14.90
2019-02-12T04:10:20.125Z,15.50
2019-02-12T04:12:46.364Z,17.07
2019-02-12T04:15:15.416Z,16.10
2019-02-12T04:17:41.608Z,9.77
2019-02-12T04:20:07.763Z,7.60
2019-02-12T04:22:34.024Z,8.83
2019-02-12T04:25:00.249Z,6.67
2019-02-12T04:27:26.508Z,14.60
2019-02-12T04:29:52.740Z,10.73
2019-02-12T04:32:18.889Z,7.33
2019-02-12T04:34:45.088Z,7.20
2019-02-12T04:37:11.264Z,12.03
2019-02-12T04:39:37.522Z,12.77
2019-02-12T04:42:06.339Z,13.47
2019-02-12T04:44:32.585Z,13.40
2019-02-12T04:46:58.775Z,10.30
2019-02-12T04:49:24.969Z,11.57
2019-02-12T04:51:51.238Z,20.20
2019-02-12T04:54:30.702Z,18.80
2019-02-12T04:56:56.865Z,11.90
2019-02-12T04:59:23.048Z,11.47
2019-02-12T05:01:49.234Z,17.73
2019-02-12T05:04:15.383Z,18.57
2019-02-12T05:06:41.593Z,17.50
2019-02-12T05:09:13.007Z,14.07
2019-02-12T05:11:42.052Z,9.33
2019-02-12T05:14:10.783Z,15.57
2019-02-12T05:16:39.514Z,11.20
2019-02-12T05:19:05.711Z,16.23
2019-02-12T05:21:40.974Z,14.00
2019-02-12T05:24:07.117Z,14.00
2019-02-12T05:26:48.586Z,23.37
2019-02-12T05:29:14.841Z,17.90
2019-02-12T05:31:41.076Z,18.13
2019-02-12T05:34:07.230Z,18.30
2019-02-12T05:36:33.406Z,12.03
2019-02-12T05:38:59.547Z,12.10
2019-02-12T05:41:25.873Z,11.70
2019-02-12T05:43:52.114Z,18.07
2019-02-12T05:46:18.337Z,14.17
2019-02-12T05:48:44.490Z,15.33
2019-02-12T05:51:13.268Z,32.27
2019-02-12T05:53:39.421Z,23.13
2019-02-12T05:56:05.614Z,17.47
2019-02-12T05:58:31.792Z,18.83
2019-02-12T06:00:58.019Z,17.50
2019-02-12T06:03:24.204Z,16.87
2019-02-12T06:05:50.378Z,16.37
2019-02-12T06:08:16.542Z,15.53
2019-02-12T06:10:42.721Z,16.17
2019-02-12T06:13:08.877Z,22.93
2019-02-12T06:15:35.088Z,18.83
2019-02-12T06:18:01.276Z,24.67
2019-02-12T06:20:27.460Z,29.87
2019-02-12T06:23:03.098Z,13.53
2019-02-12T06:25:24.398Z,26.73
2019-02-12T06:27:50.634Z,26.70
2019-02-12T06:30:35.341Z,29.23
2019-02-12T06:33:07.247Z,30.00
2019-02-12T06:35:29.593Z,39.90
2019-02-12T06:38:07.839Z,38.57
2019-02-12T06:40:36.585Z,27.27
2019-02-12T06:43:02.882Z,25.43
2019-02-12T06:45:29.106Z,22.93
2019-02-12T06:47:55.272Z,28.60
2019-02-12T06:50:21.447Z,15.10
2019-02-12T06:52:47.604Z,22.80
2019-02-12T06:55:16.410Z,26.27
2019-02-12T06:57:42.730Z,21.43
2019-02-12T07:00:13.432Z,16.27
2019-02-12T07:03:12.436Z,18.53
2019-02-12T07:05:48.068Z,14.43
2019-02-12T07:08:55.676Z,15.73
2019-02-12T07:11:34.326Z,9.17
2019-02-12T07:14:26.802Z,18.30
2019-02-12T07:17:02.751Z,13.53
2019-02-12T07:19:50.736Z,11.37
2019-02-12T07:22:44.717Z,10.07
2019-02-12T07:25:19.843Z,20.67
2019-02-12T07:28:07.088Z,20.27
2019-02-12T07:30:48.728Z,14.90
2019-02-12T07:33:18.763Z,18.87
2019-02-12T07:36:03.486Z,7.27
2019-02-12T07:38:54.459Z,21.57
2019-02-12T07:41:46.868Z,19.90
2019-02-12T07:44:25.625Z,19.57
2019-02-12T07:46:58.473Z,24.03
2019-02-12T07:49:28.656Z,35.13
2019-02-12T07:51:58.759Z,25.23
2019-02-12T07:54:31.725Z,27.40
2019-02-12T07:57:41.040Z,20.93
2019-02-12T08:00:37.188Z,22.03
2019-02-12T08:03:36.837Z,20.50
2019-02-12T08:06:12.308Z,16.20
2019-02-12T08:08:54.471Z,20.60
2019-02-12T08:11:39.500Z,20.53
2019-02-12T08:14:17.920Z,11.87
2019-02-12T08:17:02.829Z,12.20
2019-02-12T08:19:44.793Z,16.40
2019-02-12T08:22:30.082Z,17.53
2019-02-12T08:25:22.072Z,21.90
2019-02-12T08:27:58.194Z,23.77
2019-02-12T08:30:28.298Z,12.00
2019-02-12T08:33:14.771Z,15.33
2019-02-12T08:35:59.258Z,11.90
2019-02-12T08:38:38.577Z,16.10
2019-02-12T08:41:17.776Z,21.40
2019-02-12T08:43:57.191Z,18.70
2019-02-12T08:46:46.755Z,20.17
2019-02-12T08:49:48.892Z,15.53
2019-02-12T08:52:47.400Z,29.87
2019-02-12T08:55:38.625Z,20.20
2019-02-12T08:58:26.305Z,19.73
2019-02-12T09:01:02.393Z,17.87
2019-02-12T09:03:44.909Z,23.27
2019-02-12T09:06:30.286Z,14.13
2019-02-12T09:09:35.825Z,11.10
2019-02-12T09:12:20.592Z,15.00
2019-02-12T09:15:02.396Z,11.63
2019-02-12T09:18:00.243Z,15.07
2019-02-12T09:20:30.338Z,19.63
2019-02-12T09:23:03.117Z,12.27
2019-02-12T09:25:35.669Z,13.07
2019-02-12T09:28:23.672Z,12.20
2019-02-12T09:31:13.064Z,18.00
2019-02-12T09:33:59.961Z,9.63
2019-02-12T09:36:41.485Z,17.40
2019-02-12T09:39:11.464Z,17.23
2019-02-12T09:41:56.375Z,14.70
2019-02-12T09:44:41.361Z,17.97
2019-02-12T09:47:23.416Z,11.00
2019-02-12T09:50:13.920Z,12.07
2019-02-12T09:53:02.086Z,13.47
2019-02-12T09:55:44.055Z,13.30
2019-02-12T09:58:14.204Z,19.93
2019-02-12T10:00:56.191Z,19.83
2019-02-12T10:03:59.848Z,19.03
2019-02-12T10:06:38.255Z,18.90
2019-02-12T10:09:17.015Z,20.93
2019-02-12T10:11:56.367Z,19.40
2019-02-12T10:14:43.540Z,25.67
2019-02-12T10:17:24.648Z,15.87
2019-02-12T10:19:57.947Z,26.10
2019-02-12T10:22:47.632Z,17.83
2019-02-12T10:25:29.185Z,10.33
2019-02-12T10:28:17.506Z,21.10
2019-02-12T10:30:59.218Z,20.87
2019-02-12T10:33:25.458Z,17.73
2019-02-12T10:35:51.896Z,27.77
2019-02-12T10:38:20.833Z,18.40
2019-02-12T10:40:47.019Z,24.70
2019-02-12T10:43:13.197Z,19.80
2019-02-12T10:45:39.376Z,20.50
2019-02-12T10:48:05.568Z,12.97
2019-02-12T10:50:31.923Z,21.43
2019-02-12T10:52:58.156Z,19.67
2019-02-12T10:55:24.426Z,13.97
2019-02-12T10:57:53.117Z,22.33
2019-02-12T11:00:19.325Z,22.33
2019-02-12T11:02:45.661Z,19.07
2019-02-12T11:05:12.060Z,27.77
2019-02-12T11:07:40.924Z,16.73
2019-02-12T11:10:08.308Z,24.40
2019-02-12T11:12:49.657Z,22.23
2019-02-12T11:15:15.859Z,20.23
2019-02-12T11:17:42.143Z,27.53
2019-02-12T11:20:08.813Z,20.30
2019-02-12T11:22:37.851Z,22.77
2019-02-12T11:25:07.925Z,34.00
2019-02-12T11:27:34.169Z,14.37
2019-02-12T11:30:00.342Z,17.40
2019-02-12T11:32:26.792Z,31.20
2019-02-12T11:34:52.956Z,19.67
2019-02-12T11:37:19.116Z,15.93
2019-02-12T11:39:47.032Z,18.97
2019-02-12T11:42:13.340Z,20.00
2019-02-12T11:44:39.663Z,18.07
2019-02-12T11:47:05.914Z,28.73
2019-02-12T11:49:32.305Z,24.23
2019-02-12T11:51:59.788Z,20.47
2019-02-12T11:54:26.120Z,15.97
2019-02-12T11:56:52.312Z,17.00
2019-02-12T11:59:18.492Z,14.27
2019-02-12T12:01:44.676Z,21.33
2019-02-12T12:04:10.833Z,12.73
2019-02-12T12:06:37.020Z,17.63
2019-02-12T12:09:04.497Z,15.00
2019-02-12T12:11:30.695Z,12.57
2019-02-12T12:13:56.869Z,14.93
2019-02-12T12:16:23.045Z,14.53
2019-02-12T12:18:49.320Z,19.07
2019-02-12T12:21:18.571Z,17.37
2019-02-12T12:23:44.755Z,13.20
2019-02-12T12:26:10.929Z,11.60
2019-02-12T12:28:37.086Z,19.73
2019-02-12T12:31:03.431Z,20.93
2019-02-12T12:33:29.712Z,18.30
2019-02-12T12:35:55.968Z,23.27
2019-02-12T12:38:24.664Z,15.67
2019-02-12T12:40:50.856Z,17.13
2019-02-12T12:43:17.024Z,15.40
2019-02-12T12:45:43.352Z,19.80
2019-02-12T12:48:09.635Z,22.07
2019-02-12T12:50:38.776Z,22.33
2019-02-12T12:53:04.936Z,22.43
2019-02-12T12:55:31.229Z,23.57
2019-02-12T12:58:00.250Z,20.40
2019-02-12T13:00:26.516Z,26.47
2019-02-12T13:02:52.696Z,19.07
2019-02-12T13:05:18.844Z,18.67
2019-02-12T13:07:45.056Z,17.57
2019-02-12T13:10:14.404Z,21.73
2019-02-12T13:12:40.562Z,22.53
2019-02-12T13:15:09.226Z,18.03
2019-02-12T13:17:50.560Z,24.13
2019-02-12T13:20:18.436Z,20.03
2019-02-12T13:23:03.071Z,18.63
2019-02-12T13:25:31.832Z,22.60
2019-02-12T13:27:58.195Z,18.63
2019-02-12T13:30:24.650Z,24.17
2019-02-12T13:32:53.504Z,21.40
2019-02-12T13:35:19.779Z,24.60
2019-02-12T13:37:46.028Z,20.93
2019-02-12T13:40:12.491Z,18.93
2019-02-12T13:42:38.777Z,28.63
2019-02-12T13:45:12.870Z,24.17
2019-02-12T13:47:39.137Z,19.80
2019-02-12T13:50:24.298Z,27.90
2019-02-12T13:52:52.975Z,20.60
2019-02-12T13:55:19.140Z,22.20
2019-02-12T13:57:45.313Z,21.63
2019-02-12T14:00:13.436Z,21.33
2019-02-12T14:02:54.940Z,27.20
2019-02-12T14:05:22.224Z,21.00
2019-02-12T14:07:48.683Z,18.90
2019-02-12T14:10:15.014Z,18.13
2019-02-12T14:12:41.172Z,14.73
2019-02-12T14:15:10.655Z,22.57
2019-02-12T14:17:56.140Z,18.80
2019-02-12T14:20:22.576Z,21.27
2019-02-12T14:22:48.775Z,21.43
2019-02-12T14:25:15.018Z,20.80
2019-02-12T14:27:44.009Z,20.47
2019-02-12T14:30:18.096Z,19.13
2019-02-12T14:32:44.364Z,21.50
2019-02-12T14:35:11.136Z,17.30
2019-02-12T14:37:55.983Z,22.30
2019-02-12T14:40:22.185Z,20.57
2019-02-12T14:42:48.582Z,18.57
2019-02-12T14:45:18.163Z,24.30
2019-02-12T14:47:44.416Z,17.07
2019-02-12T14:50:12.242Z,18.07
2019-02-12T14:52:57.023Z,21.80
2019-02-12T14:55:23.273Z,16.33
2019-02-12T14:57:49.462Z,25.27
2019-02-12T15:00:16.848Z,27.53
2019-02-12T15:02:46.014Z,21.53
2019-02-12T15:05:30.644Z,21.23
2019-02-12T15:07:56.828Z,12.53
2019-02-12T15:10:23.129Z,17.77
2019-02-12T15:12:49.440Z,15.87
2019-02-12T15:15:16.731Z,18.20
2019-02-12T15:17:43.292Z,18.23
2019-02-12T15:20:28.317Z,24.47
2019-02-12T15:22:57.051Z,13.67
2019-02-12T15:25:23.223Z,17.20
2019-02-12T15:27:49.412Z,15.87
2019-02-12T15:30:16.773Z,18.40
2019-02-12T15:32:45.999Z,17.43
2019-02-12T15:35:12.436Z,18.90
2019-02-12T15:37:38.597Z,19.17
2019-02-12T15:40:08.172Z,19.40
2019-02-12T15:42:52.557Z,20.23
2019-02-12T15:45:20.142Z,18.60
2019-02-12T15:47:46.365Z,21.90
2019-02-12T15:50:12.531Z,19.50
2019-02-12T15:52:38.706Z,25.43
2019-02-12T15:55:08.035Z,21.83
2019-02-12T15:57:34.228Z,22.07
2019-02-12T16:00:00.501Z,19.93
2019-02-12T16:02:26.679Z,23.30
2019-02-12T16:04:52.846Z,24.83
2019-02-12T16:07:20.412Z,21.67
2019-02-12T16:09:47.116Z,20.53
2019-02-12T16:12:13.275Z,26.80
2019-02-12T16:14:40.111Z,30.67
2019-02-12T16:17:07.764Z,26.40
2019-02-12T16:19:33.944Z,19.17
2019-02-12T16:22:00.299Z,21.17
2019-02-12T16:24:26.486Z,21.30
2019-02-12T16:26:52.643Z,23.57
2019-02-12T16:29:18.839Z,26.47
2019-02-12T16:31:44.992Z,27.33
2019-02-12T16:34:11.168Z,22.13
2019-02-12T16:36:37.507Z,21.63
2019-02-12T16:39:04.644Z,27.87
2019-02-12T16:41:49.176Z,24.37
2019-02-12T16:44:15.372Z,26.60
2019-02-12T16:46:41.658Z,22.07
2019-02-12T16:49:08.025Z,27.73
2019-02-12T16:51:36.855Z,23.13
2019-02-12T16:54:03.203Z,29.93
2019-02-12T16:56:29.421Z,22.73
2019-02-12T16:59:14.368Z,23.23
2019-02-12T17:01:40.545Z,28.90
2019-02-12T17:04:06.734Z,21.10
2019-02-12T17:06:32.910Z,27.10
2019-02-12T17:09:08.270Z,40.50
2019-02-12T17:11:34.448Z,33.43
2019-02-12T17:14:00.659Z,34.37
2019-02-12T17:16:26.903Z,29.63
2019-02-12T17:18:53.081Z,32.40
2019-02-12T17:21:19.297Z,30.77
2019-02-12T17:23:45.497Z,28.03
2019-02-12T17:26:16.439Z,26.33
2019-02-12T17:28:39.944Z,22.73
2019-02-12T17:31:08.795Z,28.67
2019-02-12T17:33:37.507Z,27.13
2019-02-12T17:36:03.829Z,26.50
2019-02-12T17:38:29.999Z,34.60
2019-02-12T17:40:56.256Z,32.70
2019-02-12T17:43:22.417Z,26.57
2019-02-12T17:45:49.467Z,30.57
2019-02-12T17:48:15.619Z,29.63
2019-02-12T17:50:41.841Z,26.03
2019-02-12T17:53:07.998Z,27.97
2019-02-12T17:55:34.173Z,27.97
2019-02-12T17:58:00.336Z,30.70
2019-02-12T18:00:28.406Z,32.40
2019-02-12T18:02:54.578Z,26.47
2019-02-12T18:05:20.791Z,34.70
2019-02-12T18:07:46.955Z,37.40
2019-02-12T18:10:13.283Z,28.67
2019-02-12T18:12:42.160Z,30.93
2019-02-12T18:15:11.739Z,34.17
2019-02-12T18:17:40.436Z,30.13
2019-02-12T18:20:09.103Z,31.57
2019-02-12T18:22:47.584Z,37.07
2019-02-12T18:25:13.801Z,35.23
2019-02-12T18:27:58.282Z,39.30
2019-02-12T18:30:24.470Z,38.13
2019-02-12T18:32:50.896Z,37.93
2019-02-12T18:35:17.125Z,42.27
2019-02-12T18:37:43.509Z,42.13
2019-02-12T18:40:28.199Z,39.47
2019-02-12T18:42:54.368Z,34.83
2019-02-12T18:45:21.671Z,37.50
2019-02-12T18:47:47.904Z,40.13
2019-02-12T18:50:14.132Z,37.73
2019-02-12T18:52:40.309Z,34.93
2019-02-12T18:55:09.680Z,37.87
2019-02-12T18:57:54.826Z,34.53
2019-02-12T19:00:39.506Z,32.63
2019-02-12T19:03:05.768Z,40.73
2019-02-12T19:05:31.950Z,33.60
2019-02-12T19:07:58.179Z,33.83
2019-02-12T19:10:24.359Z,36.00
2019-02-12T19:12:50.559Z,33.77
2019-02-12T19:15:18.225Z,41.67
2019-02-12T19:17:50.887Z,41.77
2019-02-12T19:20:20.008Z,39.97
2019-02-12T19:22:46.205Z,36.73
2019-02-12T19:25:12.399Z,40.17
2019-02-12T19:27:41.416Z,38.40
2019-02-12T19:30:16.223Z,30.80
2019-02-12T19:32:42.624Z,39.10
2019-02-12T19:35:09.712Z,35.50
2019-02-12T19:37:36.025Z,45.50
2019-02-12T19:40:03.688Z,41.83
2019-02-12T19:42:32.509Z,36.07
2019-02-12T19:45:17.456Z,37.60
2019-02-12T19:47:44.007Z,31.27
2019-02-12T19:50:10.408Z,36.23
2019-02-12T19:52:39.430Z,40.87
2019-02-12T19:55:07.269Z,37.27
2019-02-12T19:57:33.503Z,36.13
2019-02-12T19:59:59.672Z,42.73
2019-02-12T20:02:25.840Z,34.33
2019-02-12T20:04:52.116Z,39.37
2019-02-12T20:07:27.029Z,34.80
2019-02-12T20:09:53.250Z,35.00
2019-02-12T20:12:19.494Z,36.63
2019-02-12T20:14:45.753Z,37.00
2019-02-12T20:17:12.044Z,40.87
2019-02-12T20:19:38.229Z,38.87
2019-02-12T20:22:04.452Z,40.50
2019-02-12T20:24:30.724Z,37.83
2019-02-12T20:27:15.910Z,39.27
2019-02-12T20:29:45.014Z,38.70
2019-02-12T20:32:29.956Z,41.77
2019-02-12T20:34:56.107Z,40.57
2019-02-12T20:37:22.276Z,35.47
2019-02-12T20:39:48.568Z,37.10
2019-02-12T20:42:14.939Z,35.40
2019-02-12T20:44:44.066Z,38.40
2019-02-12T20:47:10.261Z,29.93
2019-02-12T20:49:36.458Z,39.67
2019-02-12T20:52:21.397Z,41.10
2019-02-12T20:55:07.355Z,37.43
2019-02-12T20:57:33.585Z,34.97
2019-02-12T20:59:59.841Z,40.73
2019-02-12T21:02:26.004Z,41.90
2019-02-12T21:04:52.621Z,37.83
2019-02-12T21:07:37.860Z,44.53
2019-02-12T21:10:10.105Z,38.13
2019-02-12T21:12:38.800Z,39.00
2019-02-12T21:15:10.929Z,41.03
2019-02-12T21:17:37.204Z,38.03
2019-02-12T21:20:06.573Z,37.03
2019-02-12T21:22:32.733Z,41.23
2019-02-12T21:24:59.187Z,37.97
2019-02-12T21:27:28.167Z,39.80
2019-02-12T21:29:57.140Z,36.53
2019-02-12T21:32:23.934Z,37.97
2019-02-12T21:34:50.289Z,36.73
2019-02-12T21:37:16.458Z,35.80
2019-02-12T21:39:42.640Z,40.23
2019-02-12T21:42:08.957Z,36.37
2019-02-12T21:44:35.314Z,37.73
2019-02-12T21:47:01.568Z,35.97
2019-02-12T21:49:27.800Z,37.80
2019-02-12T21:51:54.022Z,41.97
2019-02-12T21:54:20.280Z,42.37
2019-02-12T21:56:49.146Z,48.50
2019-02-12T21:59:15.347Z,42.03
2019-02-12T22:01:41.525Z,44.43
2019-02-12T22:04:07.756Z,49.40
2019-02-12T22:06:34.156Z,32.10
2019-02-12T22:09:18.960Z,43.47
2019-02-12T22:11:45.310Z,45.17
2019-02-12T22:14:11.457Z,44.87
2019-02-12T22:16:37.629Z,49.07
2019-02-12T22:19:03.824Z,48.40
2019-02-12T22:21:30.100Z,46.43
2019-02-12T22:23:56.249Z,41.77
2019-02-12T22:26:22.426Z,49.60
2019-02-12T22:28:48.686Z,44.97
2019-02-12T22:31:14.958Z,46.00
2019-02-12T22:33:41.122Z,40.00
2019-02-12T22:36:07.296Z,47.70
2019-02-12T22:38:33.558Z,46.83
2019-02-12T22:40:59.816Z,48.23
2019-02-12T22:43:25.967Z,45.73
2019-02-12T22:45:52.172Z,48.53
2019-02-12T22:48:18.328Z,50.83
2019-02-12T22:50:44.520Z,46.83
2019-02-12T22:53:10.673Z,48.87
2019-02-12T22:55:36.895Z,42.50
2019-02-12T22:58:05.611Z,50.47
2019-02-12T23:00:47.998Z,43.17
2019-02-12T23:03:14.245Z,54.67
2019-02-12T23:05:43.128Z,47.97
2019-02-12T23:08:09.382Z,48.40
2019-02-12T23:10:35.556Z,47.97
2019-02-12T23:13:01.725Z,45.77
2019-02-12T23:15:27.898Z,50.10
2019-02-12T23:17:54.136Z,54.93
2019-02-12T23:20:20.429Z,49.13
2019-02-12T23:22:46.717Z,49.10
2019-02-12T23:25:12.909Z,54.17
2019-02-12T23:27:39.131Z,52.63
2019-02-12T23:30:07.788Z,52.53
2019-02-12T23:32:34.068Z,47.63
2019-02-12T23:35:00.233Z,48.53
2019-02-12T23:37:26.515Z,50.00
2019-02-12T23:39:52.676Z,48.20
2019-02-12T23:42:21.987Z,48.13
2019-02-12T23:44:48.143Z,48.87
2019-02-12T23:47:14.361Z,54.17
2019-02-12T23:49:40.620Z,53.10
2019-02-12T23:52:06.784Z,46.97
2019-02-12T23:54:32.973Z,43.97
2019-02-12T23:56:59.127Z,50.53
2019-02-12T23:59:25.275Z,42.53
